SBFN Informações do Aeroporto

Informações da Pista
Pista 12 Comprimento 6053 ft Largura 148 ft
Elevação 0 ft Limite 0 ft Heading 0
Pista 30 Comprimento 6053 ft Largura 148 ft
Elevação 0 ft Limite 0 ft Heading 0
Frequências do Aeroporto
Tipo AFIS Nome NORONHA RD Frequência 125.9 MHZ
Navaids do Aeroporto
Tipo VOR-DME Nome Fernando Frequência 113700 KHZ
Tipo NDB Nome Noronha Frequência 300 KHZ
Informações meteorológicas do aeroporto e NOTAM
ADDS - METARS form results

(1115 UTC 18 January 2019)
Data provider http://aviationweather.gov/metar/data/
 
METAR text: SBFN 181100Z 15011KT 9999 SCT011 28/25 Q1014
Conditions at: SBFN (FERNANDO DE NORO, BR) observed 1100 UTC 18 January 2019
Temperature: 28.0°C (82°F)
Dewpoint: 25.0°C (77°F) [RH = 84%]
Pressure (altimeter): 29.94 inches Hg (1014.0 mb)
Winds: from the SSE (150 degrees) at 13 MPH (11 knots; 5.7 m/s)
Visibility: 6 or more miles (10+ km)
Ceiling: at least 12,000 feet AGL
Clouds: scattered clouds at 1100 feet AGL
Weather: no significant weather observed at this time

Forecast for: SBFN (FERNANDO DE NORO, BR)
Text: TAF SBFN 181000Z 1812/1824 13009KT 8000 SCT017 TX31/1815Z TN26/1823Z RMK PEA
Forecast period: 1200 UTC 18 January 2019 to 0000 UTC 19 January 2019
Forecast type: FROM: standard forecast or significant change
Winds: from the SE (130 degrees) at 10 MPH (9 knots; 4.6 m/s)
Visibility: 5 miles (8 km)
Ceiling: at least 12,000 feet AGL
Clouds: scattered clouds at 1700 feet AGL
Weather: PE  (moderate ice pellets)